Time;durP1;ratioP1;P1;durP2;ratioP2;P2;SDS_P1;SDS_P2;PMS_P1;PMS_P2;Temp;Humidity;BMP_temperature;BMP_pressure;BME280_temperature;BME280_humidity;BME280_pressure;Samples;Min_cycle;Max_cycle;Signal;HPM_P1;HPM_P2
2023/05/24 00:01:15;;;;;;;9.73;3.03;;;;;;;8.85;77.18;102416.47;5139186;23;20054;-61
2023/05/24 00:06:12;;;;;;;7.35;2.75;;;;;;;8.73;77.73;102419.25;5108372;23;20378;-61
2023/05/24 00:11:21;;;;;;;9.20;2.88;;;;;;;8.69;78.02;102409.53;5216367;23;20050;-62
2023/05/24 00:13:47;;;;;;;9.13;2.95;;;;;;;8.65;77.65;102408.44;5180508;23;20062;-62
2023/05/24 00:16:12;;;;;;;11.13;2.83;;;;;;;8.70;77.68;102407.00;5295552;23;20046;-62
2023/05/24 00:18:39;;;;;;;8.38;2.85;;;;;;;8.74;77.95;102402.00;5126692;23;20194;-61
2023/05/24 00:21:09;;;;;;;12.27;3.75;;;;;;;8.70;77.82;102401.81;4977681;28;20117;-62
2023/05/24 00:23:35;;;;;;;8.40;2.80;;;;;;;8.67;78.00;102400.72;4976047;28;20033;-61
2023/05/24 00:28:36;;;;;;;6.88;2.97;;;;;;;8.65;78.15;102398.06;5232069;23;20047;-96
2023/05/24 00:31:20;;;;;;;11.23;2.97;;;;;;;8.63;78.16;102393.56;4990968;28;20054;-96
2023/05/24 00:33:49;;;;;;;11.27;3.28;;;;;;;8.60;78.09;102390.81;4989181;28;20082;-96
2023/05/24 00:36:17;;;;;;;10.07;3.38;;;;;;;8.56;78.30;102391.44;4985285;28;20035;-96
2023/05/24 00:39:03;;;;;;;10.27;3.25;;;;;;;8.53;78.30;102387.88;4992480;28;20037;-96
2023/05/24 00:41:32;;;;;;;7.63;3.00;;;;;;;8.48;79.05;102385.81;5007914;28;20038;-96
2023/05/24 00:44:06;;;;;;;9.50;3.05;;;;;;;8.45;79.24;102389.13;4991051;28;20055;-96
2023/05/24 00:46:55;;;;;;;9.20;3.03;;;;;;;8.42;78.74;102378.53;4991626;28;20035;-96
2023/05/24 00:49:31;;;;;;;8.32;3.20;;;;;;;8.39;78.94;102386.16;4993847;28;20031;-96
2023/05/24 00:52:44;;;;;;;9.70;2.90;;;;;;;8.35;78.49;102390.25;4994519;28;20019;-96
2023/05/24 00:55:27;;;;;;;9.38;3.05;;;;;;;8.26;78.87;102381.06;4995519;28;20081;-96
2023/05/24 00:57:56;;;;;;;10.23;3.20;;;;;;;8.25;78.71;102384.44;4992957;28;20476;-96
2023/05/24 01:00:22;;;;;;;;;;;;;;;8.27;77.18;102385.41;4988638;28;20046;-96
2023/05/24 01:02:57;;;;;;;8.40;2.90;;;;;;;8.20;78.52;102381.59;4989849;28;19929;-96
2023/05/24 01:05:33;;;;;;;11.70;3.72;;;;;;;8.15;79.54;102381.34;4988399;28;20027;-96
2023/05/24 01:08:46;;;;;;;9.52;3.10;;;;;;;8.12;79.71;102372.47;4982117;28;20066;-96
2023/05/24 01:12:13;;;;;;;8.43;3.20;;;;;;;8.09;79.14;102367.09;4982476;28;20042;-96
2023/05/24 01:17:26;;;;;;;9.63;3.60;;;;;;;8.03;79.75;102372.81;5081776;23;19922;-63
2023/05/24 01:22:56;;;;;;;8.80;2.95;;;;;;;7.94;79.81;102364.50;5012517;23;20034;-96
2023/05/24 01:25:36;;;;;;;8.18;3.63;;;;;;;7.94;79.61;102364.50;4991548;23;20062;-62
2023/05/24 01:28:03;;;;;;;8.80;3.28;;;;;;;7.86;79.80;102350.16;5095439;23;20467;-62
2023/05/24 01:30:32;;;;;;;8.20;3.10;;;;;;;7.81;80.16;102355.09;5073342;23;20058;-96
2023/05/24 01:33:08;;;;;;;11.45;3.30;;;;;;;7.77;80.61;102366.09;4992259;28;20138;-96
2023/05/24 01:35:38;;;;;;;10.65;3.30;;;;;;;7.69;80.97;102362.13;5011240;28;20121;-96
2023/05/24 01:38:15;;;;;;;7.88;3.40;;;;;;;7.59;81.49;102368.47;4975705;28;20119;-96
2023/05/24 01:41:00;;;;;;;8.68;3.33;;;;;;;7.59;81.21;102371.06;4976669;28;20476;-96
2023/05/24 01:43:39;;;;;;;7.32;3.28;;;;;;;7.60;81.16;102368.56;4975908;28;20030;-96
2023/05/24 01:46:25;;;;;;;9.20;3.25;;;;;;;7.58;81.53;102364.97;4979677;28;20026;-96
2023/05/24 01:49:02;;;;;;;9.27;3.20;;;;;;;7.49;82.04;102352.34;4963023;28;20042;-96
2023/05/24 01:51:48;;;;;;;8.32;2.97;;;;;;;7.43;82.47;102352.00;4987771;28;20051;-96
2023/05/24 01:54:22;;;;;;;6.20;3.10;;;;;;;7.40;83.35;102348.28;4976205;28;20031;-96
2023/05/24 01:57:05;;;;;;;;;;;;;;;;;;;;;
2023/05/24 01:59:37;;;;;;;9.70;3.45;;;;;;;7.34;83.44;102353.13;4979012;28;20035;-96
2023/05/24 02:02:08;;;;;;;10.77;3.42;;;;;;;7.36;82.98;102351.50;4973373;28;20059;-96
2023/05/24 02:04:44;;;;;;;8.57;3.88;;;;;;;7.35;82.48;102360.09;4972616;28;20149;-96
2023/05/24 02:07:13;;;;;;;7.57;3.20;;;;;;;7.28;82.13;102362.28;4967299;28;20053;-96
2023/05/24 02:09:38;;;;;;;10.02;3.25;;;;;;;7.24;82.72;102374.97;4988106;28;20078;-96
2023/05/24 02:12:17;;;;;;;9.43;3.30;;;;;;;7.15;83.20;102372.72;4970079;28;20023;-96
2023/05/24 02:14:55;;;;;;;9.20;3.22;;;;;;;7.11;82.95;102374.25;5003140;28;20538;-96
2023/05/24 02:17:24;;;;;;;8.43;3.40;;;;;;;7.05;82.32;102376.41;4981052;28;20035;-96
2023/05/24 02:19:49;;;;;;;;;;;;;;;7.07;80.84;102374.84;4965191;28;20019;-96
2023/05/24 02:22:21;;;;;;;7.75;3.08;;;;;;;7.03;82.70;102371.97;4973978;28;19945;-96
2023/05/24 02:24:52;;;;;;;7.78;3.00;;;;;;;7.02;82.79;102378.81;4971314;28;20050;-96
2023/05/24 02:27:20;;;;;;;9.48;3.00;;;;;;;6.99;82.30;102378.63;4965190;28;20066;-96
2023/05/24 02:29:46;;;;;;;9.77;3.67;;;;;;;6.99;82.25;102378.63;4966681;28;20019;-96
2023/05/24 02:32:15;;;;;;;7.10;3.00;;;;;;;6.99;82.25;102378.63;4995820;28;20050;-96
2023/05/24 02:34:43;;;;;;;10.50;3.55;;;;;;;7.00;82.00;102385.63;4966019;28;20045;-96
2023/05/24 02:37:14;;;;;;;9.03;3.33;;;;;;;6.95;82.73;102376.66;4961589;28;20078;-96
2023/05/24 02:39:42;;;;;;;9.45;3.97;;;;;;;6.89;82.92;102374.56;4981427;28;20035;-96
2023/05/24 02:42:11;;;;;;;9.88;4.10;;;;;;;6.84;83.07;102369.91;4989527;28;20501;-96
2023/05/24 02:44:39;;;;;;;10.55;3.88;;;;;;;6.83;83.29;102374.19;4975947;28;20126;-96
2023/05/24 02:47:12;;;;;;;9.88;4.15;;;;;;;6.82;83.21;102376.69;4998687;28;20086;-96
2023/05/24 02:49:38;;;;;;;11.65;4.03;;;;;;;6.84;82.87;102380.28;4979241;28;20019;-96
2023/05/24 02:52:06;;;;;;;8.00;3.47;;;;;;;6.83;82.62;102381.97;4969938;28;20034;-96
2023/05/24 02:54:32;;;;;;;8.68;3.90;;;;;;;6.81;83.13;102380.97;4968712;28;20031;-96
2023/05/24 02:57:13;;;;;;;8.05;3.80;;;;;;;6.78;82.64;102384.25;4967525;28;20030;-96
2023/05/24 02:59:39;;;;;;;9.10;3.55;;;;;;;6.75;83.32;102380.59;4988923;28;20023;-96
2023/05/24 03:02:14;;;;;;;9.85;3.83;;;;;;;6.72;83.37;102386.47;4982549;28;20070;-96
2023/05/24 03:05:20;;;;;;;8.82;3.60;;;;;;;6.69;82.71;102378.50;4987108;28;20055;-96
2023/05/24 03:08:27;;;;;;;9.57;3.67;;;;;;;6.68;82.54;102381.00;4991507;28;20019;-96
2023/05/24 03:11:20;;;;;;;8.35;3.40;;;;;;;6.65;82.79;102385.94;4958687;29;20044;-96
2023/05/24 03:13:54;;;;;;;12.38;3.92;;;;;;;6.61;83.03;102375.41;4942762;29;20031;-96
2023/05/24 03:16:42;;;;;;;8.70;3.40;;;;;;;6.62;82.79;102386.69;4972082;28;20047;-96
2023/05/24 03:19:16;;;;;;;11.00;3.83;;;;;;;6.60;82.65;102377.88;4966527;28;20094;-96
2023/05/24 03:24:40;;;;;;;9.68;3.83;;;;;;;6.51;82.95;102366.94;5109923;23;20134;-96
2023/05/24 03:27:09;;;;;;;8.48;3.67;;;;;;;6.50;82.99;102371.22;4976122;28;20074;-96
2023/05/24 03:29:48;;;;;;;8.30;3.80;;;;;;;6.49;83.34;102369.44;4985005;28;20050;-96
2023/05/24 03:32:17;;;;;;;7.82;3.63;;;;;;;6.44;83.50;102361.38;5071500;23;20030;31
2023/05/24 03:34:42;;;;;;;9.65;3.83;;;;;;;6.40;84.31;102361.97;5050799;23;20066;-63
2023/05/24 03:37:07;;;;;;;9.77;3.80;;;;;;;6.37;84.21;102366.03;5073737;23;20051;-63
2023/05/24 03:39:32;;;;;;;12.73;4.35;;;;;;;6.35;85.07;102371.13;5323316;23;20025;-63
2023/05/24 03:41:58;;;;;;;8.98;3.95;;;;;;;6.33;84.59;102364.97;4985365;28;20042;-63
2023/05/24 03:44:25;;;;;;;10.00;4.18;;;;;;;6.33;84.67;102359.78;5091026;23;20059;-63
2023/05/24 03:49:25;;;;;;;11.45;4.60;;;;;;;6.33;84.64;102369.22;5206367;23;20046;-63
2023/05/24 03:56:52;;;;;;;9.43;4.32;;;;;;;6.32;85.02;102365.75;5053209;23;20055;-63
2023/05/24 03:59:17;;;;;;;11.70;4.15;;;;;;;6.29;85.11;102364.66;4965763;28;20027;-63
2023/05/24 04:01:42;;;;;;;10.90;4.03;;;;;;;6.27;85.87;102361.94;5228651;23;20134;-64
2023/05/24 04:06:40;;;;;;;12.10;4.68;;;;;;;6.27;85.95;102367.13;5182397;23;21200;-63
2023/05/24 04:09:06;;;;;;;11.87;4.90;;;;;;;6.26;86.24;102355.00;5096757;23;20446;-63
2023/05/24 04:11:31;;;;;;;10.60;4.60;;;;;;;6.28;86.93;102363.75;4965897;28;21249;-63
2023/05/24 04:13:59;;;;;;;12.15;4.43;;;;;;;6.30;87.07;102362.19;4966767;28;20512;-63
2023/05/24 04:16:26;;;;;;;11.18;4.72;;;;;;;6.32;88.41;102370.94;5188556;23;20501;-63
2023/05/24 04:18:55;;;;;;;9.52;4.40;;;;;;;6.32;88.03;102370.94;5046235;23;20068;-63
2023/05/24 04:21:21;;;;;;;12.65;4.85;;;;;;;6.35;87.61;102375.41;4977225;28;20034;-63
2023/05/24 04:23:47;;;;;;;12.23;4.75;;;;;;;6.37;88.01;102374.72;5082716;23;20050;-63
2023/05/24 04:28:47;;;;;;;12.20;4.88;;;;;;;6.39;87.99;102367.94;5393366;23;20021;-63
2023/05/24 04:31:12;;;;;;;12.40;4.80;;;;;;;6.43;88.51;102376.78;4954692;28;20034;-63
2023/05/24 04:33:38;;;;;;;11.27;4.32;;;;;;;6.41;88.66;102371.50;5132596;23;20046;-63
2023/05/24 04:36:04;;;;;;;15.25;5.43;;;;;;;6.43;88.74;102372.53;4980670;28;20030;-63
2023/05/24 04:41:04;;;;;;;15.25;5.30;;;;;;;6.44;89.82;102370.81;5216343;23;20462;-63
2023/05/24 04:43:35;;;;;;;15.68;5.50;;;;;;;6.45;89.97;102372.63;5130824;23;20066;-96
2023/05/24 04:46:34;;;;;;;14.77;5.20;;;;;;;6.47;89.44;102376.19;4990032;28;20031;-96
2023/05/24 04:49:04;;;;;;;14.63;5.43;;;;;;;6.50;90.13;102372.91;4973416;28;20166;-96
2023/05/24 04:51:32;;;;;;;;;;;;;;;6.57;87.43;102373.41;4994717;28;20042;-96
2023/05/24 04:54:08;;;;;;;12.15;5.20;;;;;;;6.58;89.87;102374.31;4964893;28;19917;-96
2023/05/24 04:56:39;;;;;;;14.50;5.63;;;;;;;6.61;90.48;102379.69;4963563;28;20042;-96
2023/05/24 04:59:16;;;;;;;;;;;;;;;;;;;;;
2023/05/24 05:01:44;;;;;;;14.50;6.25;;;;;;;6.70;90.89;102380.28;4962935;28;20117;-96
2023/05/24 05:04:13;;;;;;;15.23;5.90;;;;;;;6.72;91.53;102378.69;4976479;28;20035;-96
2023/05/24 05:06:44;;;;;;;14.55;5.90;;;;;;;6.77;91.56;102371.22;4957638;28;20051;-96
2023/05/24 05:09:15;;;;;;;15.32;6.15;;;;;;;6.82;92.08;102368.91;4961690;28;20046;-96
2023/05/24 05:11:43;;;;;;;16.05;6.15;;;;;;;6.85;92.25;102370.00;4969769;28;20041;-96
2023/05/24 05:14:11;;;;;;;15.15;6.22;;;;;;;6.92;92.39;102379.06;4968595;28;20035;-96
2023/05/24 05:16:41;;;;;;;18.08;7.05;;;;;;;6.97;92.74;102380.25;4967369;28;20031;-96
2023/05/24 05:19:15;;;;;;;19.90;7.03;;;;;;;6.99;93.26;102373.44;4970203;28;20063;-96
2023/05/24 05:21:47;;;;;;;17.35;6.47;;;;;;;7.04;93.20;102386.69;4980727;28;20031;-96
2023/05/24 05:26:43;;;;;;;18.23;7.47;;;;;;;7.07;94.54;102390.41;5067119;23;20067;-64
2023/05/24 05:29:08;;;;;;;18.38;7.50;;;;;;;7.11;95.14;102388.88;5141137;23;20097;-63
2023/05/24 05:31:34;;;;;;;17.05;6.93;;;;;;;7.16;96.12;102395.25;5148722;23;20491;-64
2023/05/24 05:34:08;;;;;;;20.83;8.15;;;;;;;7.18;96.77;102391.06;5073543;23;20031;-96
2023/05/24 05:36:39;;;;;;;23.27;8.65;;;;;;;7.29;97.28;102386.53;4991102;23;20054;-64
2023/05/24 05:39:04;;;;;;;22.75;7.93;;;;;;;7.37;98.00;102384.41;5021535;23;20082;-64
2023/05/24 05:41:30;;;;;;;25.67;8.40;;;;;;;7.42;97.25;102381.31;5154107;23;20137;-64
2023/05/24 05:43:55;;;;;;;17.65;7.55;;;;;;;7.52;98.08;102379.25;5121393;23;20703;-64
2023/05/24 05:46:21;;;;;;;23.17;7.78;;;;;;;7.60;98.24;102376.38;4973783;28;20082;-64
2023/05/24 05:48:46;;;;;;;21.50;7.72;;;;;;;7.70;98.25;102375.19;5095165;23;20514;-64
2023/05/24 05:51:11;;;;;;;20.42;7.65;;;;;;;7.79;98.74;102386.13;5089410;23;20051;-64
2023/05/24 05:53:40;;;;;;;22.58;8.15;;;;;;;7.88;98.37;102377.09;5092611;23;20053;-96
2023/05/24 05:56:44;;;;;;;20.73;7.57;;;;;;;8.01;99.26;102384.81;4995743;28;20050;-96
2023/05/24 05:59:26;;;;;;;21.48;7.57;;;;;;;8.11;98.64;102386.22;4993376;28;20048;-96
2023/05/24 06:02:23;;;;;;;19.58;7.45;;;;;;;8.24;99.21;102393.03;4997495;28;20043;-96
2023/05/24 06:05:13;;;;;;;24.77;8.43;;;;;;;8.36;99.59;102397.25;4999518;28;20121;-96
2023/05/24 06:08:08;;;;;;;21.77;7.82;;;;;;;8.44;99.41;102395.09;5000696;28;20054;-96
2023/05/24 06:11:04;;;;;;;20.50;7.18;;;;;;;8.58;99.53;102400.22;5000079;28;20023;-96
2023/05/24 06:14:42;;;;;;;22.25;7.75;;;;;;;8.67;98.76;102400.72;5001820;28;20056;-96
2023/05/24 06:17:36;;;;;;;18.40;6.53;;;;;;;8.82;99.09;102406.81;4997259;28;20047;-96
2023/05/24 06:20:39;;;;;;;19.98;7.82;;;;;;;8.98;99.60;102408.56;5001713;28;20018;-96
2023/05/24 06:25:39;;;;;;;20.35;6.68;;;;;;;9.23;97.54;102405.56;5043320;23;20070;-64
2023/05/24 06:28:04;;;;;;;20.00;6.93;;;;;;;9.35;98.34;102410.53;5267149;23;20051;-64
2023/05/24 06:30:30;;;;;;;23.27;6.45;;;;;;;9.45;95.85;102406.72;5112247;23;20509;-64
2023/05/24 06:32:55;;;;;;;18.30;6.65;;;;;;;9.60;95.83;102413.56;5084126;23;20089;-64
2023/05/24 06:35:21;;;;;;;22.27;6.50;;;;;;;9.69;95.10;102419.25;5034152;23;21298;-64
2023/05/24 06:37:46;;;;;;;21.55;7.47;;;;;;;9.76;95.21;102413.53;5089725;23;20078;-64
2023/05/24 06:40:12;;;;;;;19.05;6.60;;;;;;;9.80;94.78;102405.09;4944061;28;20043;-65
2023/05/24 06:42:38;;;;;;;21.98;7.22;;;;;;;9.93;94.21;102401.41;5081939;23;20050;-64
2023/05/24 06:47:33;;;;;;;20.23;7.22;;;;;;;10.13;94.05;102409.34;5169131;23;20054;-64
2023/05/24 06:49:59;;;;;;;21.30;7.70;;;;;;;10.09;93.93;102406.59;5254322;23;20029;-64
2023/05/24 06:52:25;;;;;;;25.20;8.38;;;;;;;10.15;95.00;102411.19;5296776;23;20049;-65
2023/05/24 06:54:51;;;;;;;21.50;7.35;;;;;;;10.20;94.75;102414.94;5093745;23;20119;-64
2023/05/24 07:02:26;;;;;;;26.73;9.23;;;;;;;10.52;92.11;102422.63;5297119;23;20059;-64
2023/05/24 07:04:52;;;;;;;23.40;7.60;;;;;;;10.69;90.04;102423.41;5113574;23;20062;-64
2023/05/24 07:07:18;;;;;;;18.67;8.23;;;;;;;10.78;90.76;102423.88;4967467;28;20049;-64
2023/05/24 07:09:44;;;;;;;20.45;8.05;;;;;;;10.81;90.08;102412.72;5144094;23;20482;-64
2023/05/24 07:12:10;;;;;;;17.38;8.30;;;;;;;10.91;90.08;102408.00;5151404;23;20071;-64
2023/05/24 07:19:36;;;;;;;18.25;8.18;;;;;;;11.08;90.27;102414.03;5055884;23;20146;-65
2023/05/24 07:22:01;;;;;;;19.42;8.52;;;;;;;11.20;87.64;102412.81;5142072;23;20106;-64
2023/05/24 07:24:27;;;;;;;20.98;7.47;;;;;;;11.33;89.09;102414.28;5441738;23;20068;-65
2023/05/24 07:27:02;;;;;;;19.42;8.60;;;;;;;11.42;88.82;102410.34;5251877;23;20051;-96
2023/05/24 07:29:42;;;;;;;18.65;7.65;;;;;;;11.54;84.30;102417.81;5006506;28;20067;-96
2023/05/24 07:33:01;;;;;;;;;;;;;;;;;;;;;
2023/05/24 07:35:50;;;;;;;16.27;7.15;;;;;;;11.75;81.05;102424.84;4980574;28;20047;-96
2023/05/24 07:39:13;;;;;;;;;;;;;;;;;;;;;
2023/05/24 07:41:51;;;;;;;16.55;7.80;;;;;;;11.63;82.84;102422.59;4992423;28;20058;-96
2023/05/24 07:53:29;;;;;;;17.52;7.38;;;;;;;12.32;82.16;102417.75;5210161;23;20844;-64
2023/05/24 07:55:57;;;;;;;17.73;7.03;;;;;;;12.50;81.81;102411.53;5142320;23;20050;-64
2023/05/24 07:58:22;;;;;;;13.98;5.68;;;;;;;12.57;79.76;102416.16;5172977;23;20056;-65
2023/05/24 08:03:24;;;;;;;20.05;5.50;;;;;;;12.59;78.96;102418.84;5217363;23;20061;-64
2023/05/24 08:08:19;;;;;;;14.70;4.65;;;;;;;12.82;73.92;102420.66;5187911;23;20051;-64
2023/05/24 08:10:47;;;;;;;11.75;4.57;;;;;;;12.83;73.02;102419.81;5091303;23;20606;-65
2023/05/24 08:13:13;;;;;;;16.10;4.95;;;;;;;12.66;73.86;102418.25;4932711;29;20490;-65
2023/05/24 08:18:11;;;;;;;13.85;4.68;;;;;;;12.87;74.64;102416.50;5215036;23;20039;-65
2023/05/24 08:20:37;;;;;;;14.63;5.45;;;;;;;13.03;74.44;102411.84;5063947;23;20715;-65
2023/05/24 08:23:02;;;;;;;15.05;4.95;;;;;;;13.28;76.65;102423.25;5328607;23;20855;-65
2023/05/24 08:27:57;;;;;;;15.90;5.53;;;;;;;13.56;74.28;102417.38;4959596;28;20422;-65
2023/05/24 08:32:51;;;;;;;15.70;5.05;;;;;;;13.94;69.07;102406.47;5170132;23;20113;-64
2023/05/24 08:35:16;;;;;;;15.48;5.53;;;;;;;14.01;69.90;102414.59;5063746;23;20046;-64
2023/05/24 08:37:41;;;;;;;14.18;5.25;;;;;;;13.88;69.68;102408.03;5110981;23;20046;-65
2023/05/24 08:40:10;;;;;;;14.32;5.30;;;;;;;13.83;70.73;102403.47;5107647;23;20533;-65
2023/05/24 08:42:37;;;;;;;12.98;4.93;;;;;;;13.84;73.02;102405.25;5298454;23;20059;-65
2023/05/24 08:45:08;;;;;;;15.57;5.00;;;;;;;14.02;71.68;102397.13;5259931;23;20058;-65
2023/05/24 08:47:35;;;;;;;13.48;4.53;;;;;;;14.26;70.91;102397.09;5347650;23;20768;-65
2023/05/24 08:52:27;;;;;;;15.57;5.13;;;;;;;14.28;72.13;102400.66;5213067;23;1158013;-65
2023/05/24 08:54:53;;;;;;;15.35;5.55;;;;;;;14.44;70.75;102388.94;5356005;23;20081;-65
2023/05/24 08:57:20;;;;;;;14.50;5.40;;;;;;;14.72;69.46;102392.47;5109329;23;20161;-65
2023/05/24 09:05:20;;;;;;;15.50;5.47;;;;;;;15.35;65.89;102380.34;5175504;23;20055;-65
2023/05/24 09:12:57;;;;;;;12.30;5.05;;;;;;;15.59;64.14;102382.78;5100860;23;20021;-65
2023/05/24 09:15:23;;;;;;;12.75;5.07;;;;;;;15.84;67.08;102384.34;5388259;23;20062;-65
2023/05/24 09:17:48;;;;;;;12.15;4.50;;;;;;;15.99;64.20;102383.88;5175344;23;20055;-65
2023/05/24 09:22:47;;;;;;;12.05;4.50;;;;;;;16.31;62.76;102381.19;5354665;23;20557;-65
2023/05/24 09:25:13;;;;;;;10.32;4.38;;;;;;;16.25;61.35;102386.25;4950361;28;20102;-65
2023/05/24 09:27:39;;;;;;;13.10;4.40;;;;;;;16.15;56.95;102386.03;5122040;23;20062;-65
2023/05/24 09:30:13;;;;;;;12.30;4.50;;;;;;;16.16;61.51;102385.19;5030111;23;20104;-96
2023/05/24 09:32:38;;;;;;;12.40;4.72;;;;;;;16.31;60.39;102382.06;4986941;28;20045;-96
2023/05/24 09:35:20;;;;;;;16.05;4.88;;;;;;;16.25;61.67;102374.03;4988219;28;20472;-96
2023/05/24 09:37:53;;;;;;;13.52;4.80;;;;;;;16.47;63.25;102379.81;4988535;28;20038;-96
2023/05/24 09:40:42;;;;;;;14.18;5.00;;;;;;;16.71;60.37;102382.09;4981631;28;20022;-96
2023/05/24 09:43:15;;;;;;;12.00;3.95;;;;;;;16.85;58.55;102375.41;4983875;28;20093;-96
2023/05/24 09:45:52;;;;;;;10.63;3.85;;;;;;;17.09;63.13;102374.22;4983142;28;20783;-96
2023/05/24 09:48:29;;;;;;;10.68;3.75;;;;;;;16.98;56.76;102371.34;4984332;28;20018;-96
2023/05/24 09:51:18;;;;;;;11.90;3.95;;;;;;;16.94;57.53;102368.59;4984232;28;20125;-96
2023/05/24 09:53:55;;;;;;;;;;;;;;;17.03;59.08;102371.41;4987525;28;20042;-96
2023/05/24 09:56:24;;;;;;;10.30;3.75;;;;;;;17.23;57.10;102370.97;4970133;28;19914;-96
2023/05/24 09:58:57;;;;;;;13.80;4.60;;;;;;;17.38;55.69;102360.75;4961521;28;20023;-96
2023/05/24 10:01:25;;;;;;;9.73;4.20;;;;;;;17.31;59.16;102361.50;4965934;28;20031;-96
2023/05/24 10:04:01;;;;;;;12.03;4.07;;;;;;;17.36;57.35;102357.19;4968139;28;20074;-96
2023/05/24 10:06:36;;;;;;;11.85;4.05;;;;;;;17.47;55.65;102366.19;4972329;28;21180;-96
2023/05/24 10:09:08;;;;;;;13.40;3.95;;;;;;;17.36;54.76;102367.72;4968170;28;20027;-96
2023/05/24 10:11:43;;;;;;;10.82;3.90;;;;;;;17.17;55.07;102367.34;4966880;28;20023;-96
2023/05/24 10:14:22;;;;;;;12.15;3.90;;;;;;;17.02;57.00;102364.41;4964371;28;20019;-96
2023/05/24 10:16:57;;;;;;;10.65;3.90;;;;;;;17.29;59.21;102366.72;4961616;28;20027;-96
2023/05/24 10:19:25;;;;;;;11.18;4.10;;;;;;;17.69;54.58;102362.19;4965096;28;20186;-96
2023/05/24 10:21:53;;;;;;;12.23;4.20;;;;;;;17.96;56.50;102354.78;4966072;28;20540;-96
2023/05/24 10:24:25;;;;;;;11.13;3.70;;;;;;;18.30;56.82;102360.63;4965962;28;20034;-96
2023/05/24 10:26:56;;;;;;;10.50;3.42;;;;;;;18.55;52.89;102352.25;4966294;28;20114;-96
2023/05/24 10:29:47;;;;;;;8.82;3.50;;;;;;;18.53;52.85;102361.00;4968383;28;20106;-96
2023/05/24 10:32:18;;;;;;;8.55;3.67;;;;;;;18.31;51.01;102351.88;4971859;28;20030;-96
2023/05/24 10:34:45;;;;;;;11.73;4.10;;;;;;;17.86;51.41;102361.63;4975837;28;20022;-96
2023/05/24 10:37:13;;;;;;;12.35;4.20;;;;;;;17.29;53.58;102357.91;4970449;28;20027;-96
2023/05/24 10:39:42;;;;;;;10.53;3.80;;;;;;;16.94;57.36;102363.34;4968636;28;20079;-96
2023/05/24 10:42:13;;;;;;;11.18;4.10;;;;;;;16.83;53.87;102355.19;4967699;28;20361;-96
2023/05/24 10:44:41;;;;;;;10.93;3.90;;;;;;;16.44;55.31;102356.06;4966852;28;20028;-96
2023/05/24 10:47:16;;;;;;;9.35;3.80;;;;;;;16.39;58.03;102355.91;4970987;28;20038;-96
2023/05/24 10:49:51;;;;;;;10.30;3.78;;;;;;;16.44;58.39;102356.94;4963636;28;20093;-96
2023/05/24 10:52:16;;;;;;;11.43;3.65;;;;;;;16.46;56.19;102352.59;4963607;28;20052;-96
2023/05/24 10:55:03;;;;;;;11.13;3.60;;;;;;;16.52;57.14;102354.47;4965646;28;20066;-96
2023/05/24 10:57:33;;;;;;;10.07;3.42;;;;;;;16.43;56.89;102352.50;4969322;28;20050;-96
2023/05/24 11:00:30;;;;;;;9.48;3.65;;;;;;;16.61;56.59;102359.06;4965328;28;20027;-96
2023/05/24 11:03:02;;;;;;;7.90;3.40;;;;;;;16.71;56.51;102345.25;4956454;28;20051;-96
2023/05/24 11:05:33;;;;;;;8.93;3.67;;;;;;;16.66;57.50;102344.28;4965440;28;20038;-96
2023/05/24 11:08:00;;;;;;;12.15;3.65;;;;;;;16.68;56.64;102347.81;4973933;28;20034;-96
2023/05/24 11:10:30;;;;;;;9.52;3.80;;;;;;;16.44;57.17;102349.03;4966322;28;20031;-96
2023/05/24 11:13:02;;;;;;;10.60;3.38;;;;;;;16.40;56.21;102349.81;4968366;28;20178;-96
2023/05/24 11:15:33;;;;;;;10.10;3.58;;;;;;;16.28;55.32;102354.75;4968595;28;20077;-96
2023/05/24 11:18:19;;;;;;;9.10;3.33;;;;;;;16.25;56.81;102352.97;4969596;28;20035;-96
2023/05/24 11:20:49;;;;;;;11.13;3.70;;;;;;;16.25;55.00;102354.69;4971405;28;20065;-96
2023/05/24 11:23:15;;;;;;;9.80;3.42;;;;;;;16.18;56.05;102348.41;4970608;28;20027;-96
2023/05/24 11:25:48;;;;;;;12.68;4.18;;;;;;;16.13;57.49;102350.03;4967958;28;20027;-96
2023/05/24 11:28:22;;;;;;;10.73;3.30;;;;;;;16.14;57.88;102357.06;4976347;28;20070;-94
2023/05/24 11:30:56;;;;;;;9.52;4.07;;;;;;;16.10;58.06;102356.09;4989044;28;20047;-94
2023/05/24 11:33:26;;;;;;;12.20;3.85;;;;;;;16.16;58.00;102351.00;4972551;28;20035;-95
2023/05/24 11:35:55;;;;;;;8.48;3.42;;;;;;;16.04;57.79;102355.94;4976093;28;20114;-96
2023/05/24 11:38:21;;;;;;;12.02;3.88;;;;;;;16.05;57.14;102356.81;4972357;28;20029;-96
2023/05/24 11:40:48;;;;;;;11.13;3.55;;;;;;;16.15;56.24;102350.97;4977377;28;20051;-95
2023/05/24 11:43:20;;;;;;;11.73;3.53;;;;;;;16.10;56.31;102350.84;4967330;28;20539;-96
2023/05/24 11:45:58;;;;;;;10.13;3.47;;;;;;;16.32;57.42;102346.09;4976940;28;20054;-96
2023/05/24 11:48:24;;;;;;;11.60;3.80;;;;;;;16.52;59.01;102354.47;4968385;28;20027;-96
2023/05/24 11:50:52;;;;;;;10.32;4.05;;;;;;;16.75;56.54;102347.09;4976527;28;20027;-96
2023/05/24 11:53:24;;;;;;;8.48;3.28;;;;;;;16.91;56.91;102342.22;4971365;28;20063;-96
2023/05/24 11:55:51;;;;;;;13.52;3.60;;;;;;;16.99;56.36;102345.91;4966410;28;20031;-96
2023/05/24 11:58:31;;;;;;;10.77;3.40;;;;;;;16.92;54.48;102342.25;4967020;28;20089;-96
2023/05/24 12:01:01;;;;;;;9.38;3.50;;;;;;;16.68;55.77;102342.56;4969778;28;20023;-96
2023/05/24 12:03:40;;;;;;;12.70;3.80;;;;;;;16.63;57.89;102341.56;4962262;28;20039;-96
2023/05/24 12:06:05;;;;;;;12.33;3.77;;;;;;;16.60;56.43;102341.50;4965972;28;20062;-96
2023/05/24 12:08:55;;;;;;;10.75;3.60;;;;;;;16.47;57.05;102346.47;4970328;28;20027;-96
2023/05/24 12:11:21;;;;;;;10.85;4.63;;;;;;;16.30;56.04;102342.56;4973619;28;20049;-96
2023/05/24 12:13:59;;;;;;;10.60;3.92;;;;;;;16.20;57.32;102344.06;4969455;28;20043;-96
2023/05/24 12:16:28;;;;;;;12.70;4.28;;;;;;;16.27;56.19;102343.38;4968436;28;20061;-96
2023/05/24 12:19:08;;;;;;;9.75;3.95;;;;;;;16.35;58.96;102340.91;4968669;28;20043;-96
2023/05/24 12:21:48;;;;;;;10.45;3.92;;;;;;;16.43;59.89;102342.00;4967135;28;20481;-96
2023/05/24 12:24:38;;;;;;;12.90;4.10;;;;;;;16.55;58.93;102343.13;4967764;28;20039;-96
2023/05/24 12:27:10;;;;;;;9.85;4.15;;;;;;;16.51;58.63;102339.53;4965948;28;20047;-96
2023/05/24 12:29:41;;;;;;;10.70;4.15;;;;;;;16.51;57.89;102340.44;4973159;28;20051;-96
2023/05/24 12:32:13;;;;;;;10.05;3.85;;;;;;;16.57;57.35;102344.03;4967313;28;20027;-96
2023/05/24 12:34:54;;;;;;;;;;;;;;;;;;;;;
2023/05/24 12:37:21;;;;;;;10.55;4.10;;;;;;;16.80;57.64;102342.84;4963986;28;20038;-96
2023/05/24 12:39:58;;;;;;;12.35;4.20;;;;;;;16.70;56.51;102335.59;4967826;28;20094;-96
2023/05/24 12:42:28;;;;;;;9.07;4.30;;;;;;;16.59;56.77;102339.72;4972048;28;20041;-96
2023/05/24 12:45:15;;;;;;;12.75;4.43;;;;;;;16.41;56.80;102335.81;4972613;28;20028;-96
2023/05/24 12:50:37;;;;;;;10.40;4.43;;;;;;;16.44;59.31;102333.25;4970711;28;20047;-96
2023/05/24 12:56:26;;;;;;;14.35;4.03;;;;;;;16.50;59.05;102333.38;4971826;28;20070;-96
2023/05/24 13:02:36;;;;;;;9.02;3.75;;;;;;;16.67;59.11;102325.88;4968037;28;20042;-96
2023/05/24 13:05:55;;;;;;;12.15;4.40;;;;;;;16.70;60.40;102319.81;4966724;28;20026;-96
2023/05/24 13:08:28;;;;;;;8.45;3.50;;;;;;;16.74;57.28;102316.34;4967055;28;20121;-96
2023/05/24 13:10:56;;;;;;;12.35;4.30;;;;;;;16.75;59.08;102326.03;4965778;28;20033;-96
2023/05/24 13:13:34;;;;;;;;;;;;;;;;;;;;;
2023/05/24 13:16:07;;;;;;;10.98;3.95;;;;;;;16.89;58.16;102321.13;4965634;28;20023;-96
2023/05/24 13:18:33;;;;;;;10.10;3.83;;;;;;;17.03;59.28;102316.13;4964839;28;20031;-96
2023/05/24 13:21:25;;;;;;;10.40;4.40;;;;;;;17.07;57.67;102322.34;4979110;28;20023;-96
2023/05/24 13:23:53;;;;;;;12.55;4.05;;;;;;;17.08;56.16;102314.47;4976330;28;20027;-96
2023/05/24 13:26:44;;;;;;;11.88;4.60;;;;;;;17.07;57.38;102323.22;4962173;28;20031;-96
2023/05/24 13:29:15;;;;;;;12.02;4.15;;;;;;;17.12;56.80;102325.94;4968666;28;20031;-96
2023/05/24 13:32:16;;;;;;;12.02;4.57;;;;;;;17.13;56.40;102317.19;4964858;28;20022;-96
2023/05/24 13:34:58;;;;;;;12.85;4.30;;;;;;;17.12;58.97;102316.31;4980295;28;20026;-96
2023/05/24 13:37:24;;;;;;;10.98;4.30;;;;;;;17.11;57.12;102326.84;4965013;28;21272;-96